Busy, Kentucky
Current Conditions -  °F | °C
As of 5:53 PM on Saturday 20 Dec 2014 (Local Time) from KJKL Reporting Station
Overcast Overcast  
Wind Chill: 35°   Ceiling: 4700
Heat Index: 35°   Visibility: 10mi
Dew Point: 25°   Wind: 3mph
Humidity: 67%   Direction: 20°NNE
Pressure: 30.22"   Gusts: NA
Location:  37.28°N, 83.29°W
Report Text: KJKL 202253Z AUTO 02003KT 10SM OVC047 02/M04 A3022 RMK AO2 SLP245 T00171039
Loading
Personal Weather Stations






























Interactive Weather Map New forecast layout! Learn more

10-Day Weather Forecast

Advertisements
Track Severe Weather on mobile